createdAt,value
2023-11-07T00:00:16.997Z,8.09
2023-11-07T00:03:18.839Z,8.09
2023-11-07T00:06:22.326Z,8.03
2023-11-07T00:09:24.276Z,8.02
2023-11-07T00:12:26.128Z,8.00
2023-11-07T00:15:28.034Z,7.99
2023-11-07T00:18:29.971Z,7.96
2023-11-07T00:21:33.878Z,8.03
2023-11-07T00:24:35.716Z,8.04
2023-11-07T00:27:37.714Z,8.03
2023-11-07T00:30:39.626Z,8.03
2023-11-07T00:33:41.684Z,8.02
2023-11-07T00:36:45.182Z,8.01
2023-11-07T00:39:46.975Z,8.02
2023-11-07T00:42:48.687Z,8.05
2023-11-07T00:45:50.760Z,8.07
2023-11-07T00:48:52.771Z,8.11
2023-11-07T00:51:56.192Z,8.10
2023-11-07T00:54:58.043Z,8.12
2023-11-07T00:57:59.960Z,8.17
2023-11-07T01:01:02.047Z,8.20
2023-11-07T01:04:04.076Z,8.18
2023-11-07T01:07:07.686Z,8.16
2023-11-07T01:10:09.664Z,8.20
2023-11-07T01:13:11.375Z,8.19
2023-11-07T01:16:13.385Z,8.18
2023-11-07T01:19:16.652Z,8.18
2023-11-07T01:22:21.585Z,8.18
2023-11-07T01:25:23.512Z,8.10
2023-11-07T01:28:26.664Z,8.13
2023-11-07T01:31:28.453Z,8.05
2023-11-07T01:34:30.301Z,8.03
2023-11-07T01:37:33.687Z,7.97
2023-11-07T01:40:35.474Z,8.00
2023-11-07T01:43:39.020Z,8.03
2023-11-07T01:46:40.785Z,7.95
2023-11-07T01:49:43.316Z,7.94
2023-11-07T01:52:46.513Z,7.88
2023-11-07T01:55:48.335Z,7.88
2023-11-07T01:58:50.501Z,7.82
2023-11-07T02:01:53.618Z,7.81
2023-11-07T02:04:55.378Z,7.77
2023-11-07T02:07:59.593Z,7.78
2023-11-07T02:11:01.582Z,7.80
2023-11-07T02:14:03.448Z,7.80
2023-11-07T02:17:09.946Z,7.78
2023-11-07T02:20:12.516Z,7.76
2023-11-07T02:23:23.242Z,7.77
2023-11-07T02:26:24.961Z,7.79
2023-11-07T02:29:26.714Z,7.78
2023-11-07T02:32:28.624Z,7.77
2023-11-07T02:35:30.613Z,7.76
2023-11-07T02:38:33.796Z,7.77
2023-11-07T02:41:35.745Z,7.73
2023-11-07T02:44:38.445Z,7.72
2023-11-07T02:47:42.937Z,7.68
2023-11-07T02:50:45.963Z,7.67
2023-11-07T02:53:54.599Z,7.68
2023-11-07T02:56:57.045Z,7.69
2023-11-07T02:59:58.896Z,7.69
2023-11-07T03:03:00.980Z,7.70
2023-11-07T03:06:03.293Z,7.72
2023-11-07T03:09:06.623Z,7.79
2023-11-07T03:12:11.697Z,7.81
2023-11-07T03:15:14.841Z,7.83
2023-11-07T03:18:16.779Z,7.85
2023-11-07T03:21:20.444Z,7.89
2023-11-07T03:24:23.852Z,7.88
2023-11-07T03:27:26.109Z,7.97
2023-11-07T03:30:28.984Z,7.98
2023-11-07T03:33:30.896Z,8.06
2023-11-07T03:36:32.939Z,8.10
2023-11-07T03:39:36.172Z,8.02
2023-11-07T03:42:38.195Z,8.04
2023-11-07T03:45:39.908Z,8.05
2023-11-07T03:48:41.713Z,8.03
2023-11-07T03:51:43.511Z,8.04
2023-11-07T03:54:46.788Z,8.01
2023-11-07T03:57:48.581Z,8.07
2023-11-07T04:00:50.253Z,8.12
2023-11-07T04:03:52.404Z,8.08
2023-11-07T04:06:54.768Z,8.11
2023-11-07T04:09:58.022Z,8.12
2023-11-07T04:13:00.627Z,8.08
2023-11-07T04:16:04.085Z,8.03
2023-11-07T04:19:05.949Z,7.94
2023-11-07T04:22:09.006Z,7.90
2023-11-07T04:25:12.388Z,7.90
2023-11-07T04:28:14.120Z,7.96
2023-11-07T04:31:16.032Z,7.97
2023-11-07T04:34:18.385Z,8.03
2023-11-07T04:37:20.284Z,8.08
2023-11-07T04:40:23.543Z,8.11
2023-11-07T04:43:27.226Z,8.11
2023-11-07T04:46:29.134Z,8.12
2023-11-07T04:49:31.294Z,8.10
2023-11-07T04:52:34.966Z,8.12
2023-11-07T04:55:38.226Z,8.18
2023-11-07T04:58:56.481Z,8.21
2023-11-07T05:02:01.140Z,8.27
2023-11-07T05:05:05.378Z,8.34
2023-11-07T05:08:08.025Z,8.32
2023-11-07T05:11:13.551Z,8.25
2023-11-07T05:14:16.216Z,8.20
2023-11-07T05:17:17.986Z,8.21
2023-11-07T05:20:19.748Z,8.14
2023-11-07T05:23:23.761Z,8.11
2023-11-07T05:26:26.945Z,8.07
2023-11-07T05:29:28.709Z,8.03
2023-11-07T05:32:30.653Z,8.02
2023-11-07T05:35:32.810Z,8.01
2023-11-07T05:38:35.373Z,8.00
2023-11-07T05:41:38.781Z,7.99
2023-11-07T05:44:40.736Z,7.94
2023-11-07T05:47:42.768Z,7.97
2023-11-07T05:50:44.926Z,7.95
2023-11-07T05:53:47.088Z,8.00
2023-11-07T05:56:50.287Z,8.00
2023-11-07T05:59:52.845Z,7.99
2023-11-07T06:02:54.881Z,7.94
2023-11-07T06:05:57.142Z,7.91
2023-11-07T06:08:59.143Z,7.91
2023-11-07T06:12:02.504Z,7.87
2023-11-07T06:15:04.950Z,7.84
2023-11-07T06:18:07.971Z,7.79
2023-11-07T06:21:11.986Z,7.76
2023-11-07T06:24:13.759Z,7.74
2023-11-07T06:27:17.086Z,7.73
2023-11-07T06:30:19.578Z,7.74
2023-11-07T06:33:21.668Z,7.71
2023-11-07T06:36:25.424Z,7.69
2023-11-07T06:39:28.644Z,7.69
2023-11-07T06:42:31.809Z,7.68
2023-11-07T06:45:33.665Z,7.69
2023-11-07T06:48:35.747Z,7.71
2023-11-07T06:51:37.670Z,7.73
2023-11-07T06:54:39.434Z,7.75
2023-11-07T06:57:43.320Z,7.73
2023-11-07T07:00:45.694Z,7.71
2023-11-07T07:03:47.596Z,7.72
2023-11-07T07:06:49.643Z,7.70
2023-11-07T07:09:51.591Z,7.74
2023-11-07T07:12:57.677Z,7.74
2023-11-07T07:16:01.150Z,7.73
2023-11-07T07:19:07.883Z,7.76
2023-11-07T07:22:10.346Z,7.78
2023-11-07T07:25:21.966Z,7.79
2023-11-07T07:28:26.977Z,7.79
2023-11-07T07:31:34.565Z,7.78
2023-11-07T07:34:36.452Z,7.80
2023-11-07T07:37:38.375Z,7.81
2023-11-07T07:40:40.306Z,7.85
2023-11-07T07:43:46.081Z,7.89
2023-11-07T07:46:49.806Z,7.91
2023-11-07T07:49:51.808Z,7.91
2023-11-07T07:52:57.615Z,7.94
2023-11-07T07:55:59.701Z,7.96
2023-11-07T07:59:06.648Z,8.01
2023-11-07T08:02:08.848Z,8.03
2023-11-07T08:05:15.864Z,8.04
2023-11-07T08:08:18.053Z,8.08
2023-11-07T08:11:19.904Z,8.07
2023-11-07T08:14:24.034Z,8.07
2023-11-07T08:17:26.046Z,8.07
2023-11-07T08:20:27.872Z,8.07
2023-11-07T08:23:30.273Z,8.04
2023-11-07T08:26:34.275Z,8.03
2023-11-07T08:29:37.576Z,8.03
2023-11-07T08:32:39.648Z,8.03
2023-11-07T08:35:41.757Z,8.05
2023-11-07T08:38:44.124Z,8.05
2023-11-07T08:41:46.079Z,8.07
2023-11-07T08:44:49.328Z,8.10
2023-11-07T08:47:52.534Z,8.12
2023-11-07T08:50:54.569Z,8.14
2023-11-07T08:53:57.631Z,8.14
2023-11-07T08:56:59.466Z,8.19
2023-11-07T09:00:02.995Z,8.22
2023-11-07T09:03:04.899Z,8.23
2023-11-07T09:06:06.869Z,8.20
2023-11-07T09:09:09.566Z,8.19
2023-11-07T09:12:11.701Z,8.17
2023-11-07T09:15:15.107Z,8.15
2023-11-07T09:18:17.240Z,8.16
2023-11-07T09:21:19.271Z,8.18
2023-11-07T09:24:22.018Z,8.19
2023-11-07T09:27:24.439Z,8.18
2023-11-07T09:30:27.983Z,8.21
2023-11-07T09:33:31.264Z,8.23
2023-11-07T09:36:33.132Z,8.24
2023-11-07T09:39:35.270Z,8.25
2023-11-07T09:42:37.241Z,8.27
2023-11-07T09:45:41.042Z,8.30
2023-11-07T09:48:43.394Z,8.30
2023-11-07T09:51:48.267Z,8.37
2023-11-07T09:54:51.227Z,8.44
2023-11-07T09:58:05.299Z,8.47
2023-11-07T10:01:17.105Z,8.50
2023-11-07T10:04:22.014Z,8.53
2023-11-07T10:07:25.190Z,8.56
2023-11-07T10:10:27.982Z,8.57
2023-11-07T10:13:30.677Z,8.61
2023-11-07T10:16:37.790Z,8.62
2023-11-07T10:19:40.122Z,8.62
2023-11-07T10:22:45.094Z,8.62
2023-11-07T10:25:53.047Z,8.62
2023-11-07T10:29:04.996Z,8.66
2023-11-07T10:32:11.535Z,8.70
2023-11-07T10:35:16.185Z,8.75
2023-11-07T10:38:19.957Z,8.77
2023-11-07T10:41:27.677Z,8.81
2023-11-07T10:44:30.967Z,8.85
2023-11-07T10:47:35.575Z,8.90
2023-11-07T10:50:39.043Z,8.88
2023-11-07T10:53:43.177Z,8.87
2023-11-07T10:56:46.054Z,8.87
2023-11-07T10:59:49.544Z,9.03
2023-11-07T11:02:55.804Z,9.11
2023-11-07T11:05:58.550Z,9.16
2023-11-07T11:09:01.862Z,9.23
2023-11-07T11:12:04.653Z,9.25
2023-11-07T11:15:10.736Z,9.25
2023-11-07T11:18:19.514Z,9.16
2023-11-07T11:21:26.575Z,9.11
2023-11-07T11:24:35.704Z,9.12
2023-11-07T11:27:38.436Z,9.10
2023-11-07T11:30:41.781Z,9.12
2023-11-07T11:33:48.043Z,9.15
2023-11-07T11:36:53.893Z,9.15
2023-11-07T11:39:55.759Z,9.18
2023-11-07T11:43:06.932Z,9.23
2023-11-07T11:46:28.443Z,9.26
2023-11-07T11:49:33.261Z,9.32
2023-11-07T11:52:35.919Z,9.47
2023-11-07T11:55:57.539Z,9.46
2023-11-07T11:59:10.572Z,9.44
2023-11-07T12:02:13.328Z,9.48
2023-11-07T12:05:22.616Z,9.48
2023-11-07T12:08:36.665Z,9.46
2023-11-07T12:11:45.899Z,9.51
2023-11-07T12:14:55.026Z,9.55
2023-11-07T12:18:00.602Z,9.49
2023-11-07T12:21:08.149Z,9.42
2023-11-07T12:24:12.172Z,9.35
2023-11-07T12:27:20.774Z,9.27
2023-11-07T12:30:26.315Z,9.11
2023-11-07T12:33:41.926Z,8.87
2023-11-07T12:36:45.510Z,8.65
2023-11-07T12:39:49.537Z,8.47
2023-11-07T12:42:54.553Z,8.30
2023-11-07T12:46:09.637Z,8.17
2023-11-07T12:49:17.722Z,8.17
2023-11-07T12:52:21.951Z,8.19
2023-11-07T12:55:28.057Z,8.21
2023-11-07T12:58:32.012Z,8.23
2023-11-07T13:01:37.342Z,8.26
2023-11-07T13:04:41.288Z,8.33
2023-11-07T13:07:44.769Z,8.37
2023-11-07T13:10:46.656Z,8.34
2023-11-07T13:13:51.056Z,8.39
2023-11-07T13:16:53.237Z,8.46
2023-11-07T13:19:57.644Z,8.54
2023-11-07T13:23:01.076Z,8.52
2023-11-07T13:26:04.081Z,8.56
2023-11-07T13:29:07.956Z,8.64
2023-11-07T13:32:10.165Z,8.68
2023-11-07T13:35:13.628Z,8.70
2023-11-07T13:38:26.516Z,8.76
2023-11-07T13:41:28.756Z,8.78
2023-11-07T13:44:34.836Z,8.76
2023-11-07T13:47:44.679Z,8.81
2023-11-07T13:50:54.304Z,8.96
2023-11-07T13:53:57.910Z,8.97
2023-11-07T13:57:02.463Z,9.05
2023-11-07T14:00:12.590Z,8.94
2023-11-07T14:03:16.208Z,8.83
2023-11-07T14:06:19.188Z,8.77
2023-11-07T14:09:24.040Z,8.85
2023-11-07T14:12:29.553Z,8.84
2023-11-07T14:15:38.353Z,8.75
2023-11-07T14:18:46.926Z,8.70
2023-11-07T14:21:53.108Z,8.73
2023-11-07T14:25:03.030Z,8.77
2023-11-07T14:28:10.434Z,8.77
2023-11-07T14:31:13.052Z,8.78
2023-11-07T14:34:15.130Z,8.84
2023-11-07T14:37:17.409Z,8.71
2023-11-07T14:40:22.761Z,8.59
2023-11-07T14:43:24.580Z,8.64
2023-11-07T14:46:26.901Z,8.61
2023-11-07T14:49:29.751Z,8.59
2023-11-07T14:52:31.595Z,8.58
2023-11-07T14:55:36.134Z,8.55
2023-11-07T14:58:39.387Z,8.40
2023-11-07T15:01:41.188Z,8.29
2023-11-07T15:04:43.933Z,8.26
2023-11-07T15:07:45.820Z,8.26
2023-11-07T15:10:49.436Z,8.21
2023-11-07T15:13:56.871Z,8.28
2023-11-07T15:16:59.250Z,8.28
2023-11-07T15:20:01.160Z,8.26
2023-11-07T15:23:03.721Z,8.27
2023-11-07T15:26:06.951Z,8.29
2023-11-07T15:29:09.742Z,8.32
2023-11-07T15:32:14.460Z,8.33
2023-11-07T15:35:16.589Z,8.31
2023-11-07T15:38:18.598Z,8.25
2023-11-07T15:41:22.116Z,8.21
2023-11-07T15:44:24.439Z,8.19
2023-11-07T15:47:26.473Z,8.17
2023-11-07T15:50:28.726Z,8.11
2023-11-07T15:53:31.269Z,8.09
2023-11-07T15:56:38.437Z,8.18
2023-11-07T15:59:40.356Z,8.24
2023-11-07T16:02:45.040Z,8.21
2023-11-07T16:05:47.313Z,8.06
2023-11-07T16:08:49.252Z,8.03
2023-11-07T16:11:52.719Z,7.93
2023-11-07T16:14:54.817Z,7.90
2023-11-07T16:17:56.945Z,7.88
2023-11-07T16:20:59.517Z,7.78
2023-11-07T16:24:01.415Z,7.72
2023-11-07T16:27:09.447Z,7.72
2023-11-07T16:30:12.389Z,7.68
2023-11-07T16:33:16.231Z,7.64
2023-11-07T16:36:18.093Z,7.55
2023-11-07T16:39:20.193Z,7.48
2023-11-07T16:42:26.817Z,7.38
2023-11-07T16:45:30.173Z,7.29
2023-11-07T16:48:33.098Z,7.24
2023-11-07T16:51:35.993Z,7.15
2023-11-07T16:54:41.940Z,7.13
2023-11-07T16:57:48.595Z,7.10
2023-11-07T17:00:50.857Z,7.09
2023-11-07T17:03:54.763Z,7.11
2023-11-07T17:06:56.591Z,7.06
2023-11-07T17:09:58.541Z,7.06
2023-11-07T17:13:02.513Z,7.12
2023-11-07T17:16:05.041Z,7.06
2023-11-07T17:19:07.119Z,7.11
2023-11-07T17:22:10.909Z,7.08
2023-11-07T17:25:14.607Z,7.15
2023-11-07T17:28:20.525Z,7.13
2023-11-07T17:31:22.695Z,7.11
2023-11-07T17:34:24.715Z,7.06
2023-11-07T17:37:29.703Z,7.00
2023-11-07T17:40:32.148Z,7.05
2023-11-07T17:43:35.486Z,7.07
2023-11-07T17:46:37.389Z,7.06
2023-11-07T17:49:39.090Z,7.07
2023-11-07T17:52:42.795Z,7.08
2023-11-07T17:55:44.869Z,7.07
2023-11-07T17:58:48.223Z,7.10
2023-11-07T18:01:50.083Z,7.06
2023-11-07T18:04:52.190Z,6.99
2023-11-07T18:07:54.261Z,6.98
2023-11-07T18:11:02.979Z,6.95
2023-11-07T18:14:06.237Z,6.94
2023-11-07T18:17:08.480Z,6.94
2023-11-07T18:20:14.668Z,7.01
2023-11-07T18:23:16.486Z,6.96
2023-11-07T18:26:22.362Z,6.89
2023-11-07T18:29:26.473Z,6.86
2023-11-07T18:32:29.071Z,6.91
2023-11-07T18:35:31.074Z,6.91
2023-11-07T18:38:33.056Z,6.91
2023-11-07T18:41:34.826Z,6.91
2023-11-07T18:44:41.636Z,6.94
2023-11-07T18:47:44.801Z,6.91
2023-11-07T18:50:48.057Z,6.87
2023-11-07T18:53:52.560Z,6.83
2023-11-07T18:56:58.182Z,6.91
2023-11-07T19:00:02.127Z,6.96
2023-11-07T19:03:04.349Z,6.99
2023-11-07T19:06:06.397Z,7.01
2023-11-07T19:09:12.536Z,7.01
2023-11-07T19:12:15.171Z,6.98
2023-11-07T19:15:18.699Z,7.00
2023-11-07T19:18:20.481Z,7.01
2023-11-07T19:21:22.832Z,6.99
2023-11-07T19:24:24.751Z,6.97
2023-11-07T19:27:26.933Z,6.94
2023-11-07T19:30:30.582Z,6.87
2023-11-07T19:33:32.635Z,6.88
2023-11-07T19:36:38.064Z,6.85
2023-11-07T19:39:39.992Z,6.84
2023-11-07T19:42:46.150Z,6.83
2023-11-07T19:45:49.485Z,6.82
2023-11-07T19:48:53.023Z,6.77
2023-11-07T19:51:56.423Z,6.76
2023-11-07T19:54:58.341Z,6.80
2023-11-07T19:58:01.448Z,6.83
2023-11-07T20:01:04.777Z,6.83
2023-11-07T20:04:06.979Z,6.75
2023-11-07T20:07:09.146Z,6.76
2023-11-07T20:10:12.393Z,6.72
2023-11-07T20:13:14.936Z,6.64
2023-11-07T20:16:19.350Z,6.72
2023-11-07T20:19:21.154Z,6.73
2023-11-07T20:22:23.081Z,6.75
2023-11-07T20:25:24.848Z,6.69
2023-11-07T20:28:26.841Z,6.80
2023-11-07T20:31:30.234Z,6.75
2023-11-07T20:34:34.061Z,6.75
2023-11-07T20:37:35.798Z,6.77
2023-11-07T20:40:40.347Z,6.78
2023-11-07T20:43:42.610Z,6.82
2023-11-07T20:46:45.895Z,6.85
2023-11-07T20:49:50.556Z,6.91
2023-11-07T20:52:52.914Z,6.86
2023-11-07T20:55:54.907Z,6.81
2023-11-07T20:58:57.419Z,6.76
2023-11-07T21:02:00.560Z,6.69
2023-11-07T21:05:02.315Z,6.70
2023-11-07T21:08:04.219Z,6.82
2023-11-07T21:11:06.818Z,6.82
2023-11-07T21:14:11.367Z,6.88
2023-11-07T21:17:14.620Z,6.89
2023-11-07T21:20:16.846Z,6.83
2023-11-07T21:23:18.818Z,6.90
2023-11-07T21:26:22.747Z,6.95
2023-11-07T21:29:24.795Z,6.98
2023-11-07T21:32:28.822Z,6.98
2023-11-07T21:35:30.662Z,6.97
2023-11-07T21:38:32.565Z,6.95
2023-11-07T21:41:34.329Z,6.93
2023-11-07T21:44:36.389Z,7.02
2023-11-07T21:47:39.719Z,7.06
2023-11-07T21:50:42.069Z,7.05
2023-11-07T21:53:43.868Z,7.00
2023-11-07T21:56:45.560Z,7.03
2023-11-07T21:59:47.472Z,7.06
2023-11-07T22:02:51.132Z,7.00
2023-11-07T22:05:52.983Z,6.96
2023-11-07T22:08:54.820Z,7.00
2023-11-07T22:11:56.712Z,6.94
2023-11-07T22:14:59.701Z,6.94
2023-11-07T22:18:02.965Z,6.88
2023-11-07T22:21:04.916Z,6.91
2023-11-07T22:24:07.307Z,6.91
2023-11-07T22:27:10.504Z,6.94
2023-11-07T22:30:13.510Z,7.00
2023-11-07T22:33:16.843Z,7.03
2023-11-07T22:36:18.702Z,7.04
2023-11-07T22:39:20.487Z,7.00
2023-11-07T22:42:22.278Z,7.06
2023-11-07T22:45:24.155Z,7.07
2023-11-07T22:48:30.808Z,7.12
2023-11-07T22:51:33.435Z,7.11
2023-11-07T22:54:35.322Z,7.12
2023-11-07T22:57:37.120Z,7.13
2023-11-07T23:00:41.800Z,7.12
2023-11-07T23:03:46.388Z,7.08
2023-11-07T23:06:48.454Z,7.03
2023-11-07T23:09:50.725Z,7.02
2023-11-07T23:12:52.676Z,7.05
2023-11-07T23:15:54.704Z,7.07
2023-11-07T23:18:57.769Z,7.05
2023-11-07T23:21:59.647Z,7.07
2023-11-07T23:25:02.251Z,7.09
2023-11-07T23:28:05.361Z,7.08
2023-11-07T23:31:08.199Z,7.09
2023-11-07T23:34:11.597Z,7.13
2023-11-07T23:37:14.081Z,7.11
2023-11-07T23:40:15.888Z,7.09
2023-11-07T23:43:17.821Z,7.14
2023-11-07T23:46:19.875Z,7.11
2023-11-07T23:49:22.972Z,7.11
2023-11-07T23:52:24.657Z,7.12
2023-11-07T23:55:26.932Z,7.12
2023-11-07T23:58:28.562Z,7.11
